Time;durP1;ratioP1;P1;durP2;ratioP2;P2;SDS_P1;SDS_P2;PMS_P1;PMS_P2;Temp;Humidity;BMP_temperature;BMP_pressure;BME280_temperature;BME280_humidity;BME280_pressure;Samples;Min_cycle;Max_cycle;Signal;HPM_P1;HPM_P2
2023/12/17 00:02:19;;;;;;;38.72;20.38;;;9.90;99.90;;;;;;5075864;28;20073;-73
2023/12/17 00:04:45;;;;;;;34.90;19.67;;;9.90;99.90;;;;;;5069152;28;20039;-73
2023/12/17 00:07:10;;;;;;;37.35;21.20;;;9.90;99.90;;;;;;5075369;28;20020;-73
2023/12/17 00:09:36;;;;;;;36.95;20.45;;;9.90;99.90;;;;;;5084076;28;20029;-73
2023/12/17 00:12:02;;;;;;;32.10;17.75;;;10.00;99.90;;;;;;5080250;28;20024;-73
2023/12/17 00:14:27;;;;;;;31.33;17.42;;;9.90;99.90;;;;;;5073940;28;20052;-73
2023/12/17 00:16:53;;;;;;;29.25;16.73;;;10.00;99.90;;;;;;5065746;28;20021;-73
2023/12/17 00:19:18;;;;;;;30.35;17.15;;;10.00;99.90;;;;;;5078501;28;20124;-73
2023/12/17 00:21:44;;;;;;;28.02;16.20;;;9.90;99.90;;;;;;5070991;28;20024;-73
2023/12/17 00:24:09;;;;;;;26.20;15.63;;;9.90;99.90;;;;;;5073223;28;20030;-73
2023/12/17 00:26:35;;;;;;;26.05;15.25;;;10.00;99.90;;;;;;5087183;28;20082;-73
2023/12/17 00:29:00;;;;;;;27.17;15.13;;;10.00;99.90;;;;;;5091078;28;20376;-73
2023/12/17 00:31:26;;;;;;;30.25;16.17;;;9.90;99.90;;;;;;5078684;28;20028;-73
2023/12/17 00:33:52;;;;;;;30.63;15.20;;;10.00;99.90;;;;;;5074496;28;20539;-73
2023/12/17 00:36:17;;;;;;;28.15;15.13;;;10.00;99.90;;;;;;5069685;28;20369;-73
2023/12/17 00:38:43;;;;;;;25.55;14.80;;;10.00;99.90;;;;;;5077404;28;20455;-73
2023/12/17 00:41:08;;;;;;;23.92;13.63;;;10.00;99.90;;;;;;5089011;28;20039;-73
2023/12/17 00:43:35;;;;;;;25.90;15.40;;;10.00;99.90;;;;;;5071740;28;20159;-73
2023/12/17 00:46:00;;;;;;;24.35;13.93;;;10.00;99.90;;;;;;5062143;28;20409;-73
2023/12/17 00:48:26;;;;;;;25.15;14.63;;;10.00;99.90;;;;;;5075789;28;20020;-73
2023/12/17 00:50:51;;;;;;;28.08;15.05;;;10.00;99.90;;;;;;5086922;28;20476;-73
2023/12/17 00:53:17;;;;;;;22.58;13.93;;;10.00;99.90;;;;;;5087893;28;20116;-73
2023/12/17 00:55:43;;;;;;;23.00;14.00;;;10.00;99.90;;;;;;5067169;28;20029;-73
2023/12/17 00:58:08;;;;;;;25.13;13.73;;;10.00;99.90;;;;;;5075089;28;20115;-73
2023/12/17 01:00:34;;;;;;;22.77;13.55;;;10.00;99.90;;;;;;5085555;28;20033;-73
2023/12/17 01:02:59;;;;;;;23.77;13.73;;;10.00;99.90;;;;;;5078783;28;20465;-73
2023/12/17 01:05:25;;;;;;;22.65;13.20;;;10.00;99.90;;;;;;5059543;28;20041;-73
2023/12/17 01:07:50;;;;;;;22.23;12.38;;;10.00;99.90;;;;;;5076680;28;20035;-73
2023/12/17 01:10:16;;;;;;;20.23;11.35;;;10.00;99.90;;;;;;5072454;28;20119;-73
2023/12/17 01:12:42;;;;;;;20.08;10.88;;;10.00;99.90;;;;;;5061833;28;20021;-73
2023/12/17 01:15:08;;;;;;;20.02;11.40;;;10.00;99.90;;;;;;5072686;28;20024;-73
2023/12/17 01:17:33;;;;;;;16.13;10.20;;;10.00;99.90;;;;;;5091467;28;20020;-73
2023/12/17 01:19:59;;;;;;;15.52;8.23;;;10.00;99.90;;;;;;5069700;28;20125;-73
2023/12/17 01:22:24;;;;;;;16.42;7.28;;;10.10;99.90;;;;;;5070712;28;20022;-73
2023/12/17 01:24:54;;;;;;;14.60;6.93;;;10.00;99.90;;;;;;5079026;28;20112;-73
2023/12/17 01:27:20;;;;;;;14.90;8.27;;;10.10;99.90;;;;;;5081422;28;20055;-73
2023/12/17 01:29:46;;;;;;;15.80;8.52;;;10.10;99.90;;;;;;5079861;28;20055;-73
2023/12/17 01:32:12;;;;;;;18.85;11.30;;;10.10;99.90;;;;;;5064981;28;20083;-73
2023/12/17 01:34:37;;;;;;;20.95;11.45;;;10.10;99.90;;;;;;5067524;28;21395;-73
2023/12/17 01:37:03;;;;;;;20.27;11.65;;;10.10;99.90;;;;;;5075022;28;20024;-73
2023/12/17 01:39:28;;;;;;;23.35;12.95;;;10.10;99.90;;;;;;5080569;28;20051;-73
2023/12/17 01:41:55;;;;;;;19.45;10.43;;;10.10;99.90;;;;;;5093450;28;20028;-73
2023/12/17 01:44:20;;;;;;;20.08;10.10;;;10.10;99.90;;;;;;5075815;28;20053;-73
2023/12/17 01:46:46;;;;;;;18.38;8.93;;;10.10;99.90;;;;;;5070421;28;20494;-73
2023/12/17 01:49:12;;;;;;;16.35;9.88;;;10.10;99.90;;;;;;5082317;28;20032;-73
2023/12/17 01:51:39;;;;;;;14.90;8.27;;;10.10;99.90;;;;;;5087213;28;20027;-73
2023/12/17 01:54:05;;;;;;;20.33;9.63;;;10.10;99.90;;;;;;5066820;28;20404;-73
2023/12/17 01:56:31;;;;;;;17.98;9.18;;;10.10;99.90;;;;;;5064879;28;20021;-73
2023/12/17 01:58:57;;;;;;;16.85;8.18;;;10.10;99.90;;;;;;5061208;28;20453;-73
2023/12/17 02:01:23;;;;;;;17.73;8.95;;;10.10;99.90;;;;;;5064461;28;20031;-73
2023/12/17 02:03:49;;;;;;;13.80;7.22;;;10.10;99.90;;;;;;5064819;28;20029;-73
2023/12/17 02:06:15;;;;;;;13.60;6.55;;;10.10;99.90;;;;;;5068463;28;20439;-73
2023/12/17 02:08:41;;;;;;;15.30;7.68;;;10.10;99.90;;;;;;5080174;28;20119;-73
2023/12/17 02:11:06;;;;;;;14.30;7.05;;;10.10;99.90;;;;;;5073761;28;20024;-73
2023/12/17 02:13:32;;;;;;;12.10;6.07;;;10.10;99.90;;;;;;5067567;28;20033;-73
2023/12/17 02:15:58;;;;;;;12.95;6.55;;;10.10;99.90;;;;;;5063787;28;20485;-73
2023/12/17 02:18:23;;;;;;;14.07;7.20;;;10.10;99.90;;;;;;5077325;28;20078;-73
2023/12/17 02:20:50;;;;;;;12.15;5.40;;;10.10;99.90;;;;;;5072729;28;20017;-73
2023/12/17 02:23:15;;;;;;;13.00;5.75;;;10.10;99.90;;;;;;5061221;28;20115;-73
2023/12/17 02:25:41;;;;;;;10.00;5.22;;;10.10;99.90;;;;;;5075955;28;20115;-73
2023/12/17 02:28:07;;;;;;;9.57;5.65;;;10.10;99.90;;;;;;5066056;28;20024;-73
2023/12/17 02:30:32;;;;;;;10.27;5.05;;;10.10;99.90;;;;;;5078039;28;20033;-73
2023/12/17 02:32:58;;;;;;;10.30;5.25;;;10.20;99.90;;;;;;5065890;28;20020;-73
2023/12/17 02:35:25;;;;;;;12.40;4.90;;;10.20;99.90;;;;;;5076624;28;20118;-73
2023/12/17 02:37:51;;;;;;;9.32;5.18;;;10.20;99.90;;;;;;5083875;28;20024;-73
2023/12/17 02:40:16;;;;;;;11.35;5.75;;;10.10;99.90;;;;;;5068855;28;20374;-73
2023/12/17 02:42:43;;;;;;;15.13;5.85;;;10.10;99.90;;;;;;5065191;28;20075;-73
2023/12/17 02:45:10;;;;;;;11.38;6.30;;;10.10;99.90;;;;;;5069494;28;20506;-73
2023/12/17 02:47:35;;;;;;;13.98;6.47;;;10.10;99.90;;;;;;5070774;28;20384;-73
2023/12/17 02:50:01;;;;;;;19.77;6.93;;;10.00;99.90;;;;;;5069863;28;20050;-73
2023/12/17 02:52:27;;;;;;;16.05;6.47;;;10.00;99.90;;;;;;5059944;28;20489;-73
2023/12/17 02:54:52;;;;;;;13.85;6.75;;;10.00;99.90;;;;;;5087401;28;20024;-73
2023/12/17 02:57:18;;;;;;;12.45;6.40;;;10.00;99.90;;;;;;5078478;28;20028;-73
2023/12/17 02:59:43;;;;;;;13.10;7.20;;;10.00;99.90;;;;;;5075444;28;20029;-73
2023/12/17 03:02:09;;;;;;;10.85;6.25;;;10.00;99.90;;;;;;5063127;28;20028;-73
2023/12/17 03:04:35;;;;;;;13.65;7.53;;;9.90;99.90;;;;;;5068828;28;20107;-73
2023/12/17 03:07:00;;;;;;;11.15;7.13;;;9.90;99.90;;;;;;5085306;28;20024;-73
2023/12/17 03:09:26;;;;;;;13.27;7.47;;;9.90;99.90;;;;;;5069311;28;20021;-73
2023/12/17 03:11:51;;;;;;;14.40;7.82;;;9.90;99.90;;;;;;5067927;28;20052;-73
2023/12/17 03:14:17;;;;;;;12.73;7.22;;;9.80;99.90;;;;;;5062472;28;20043;-73
2023/12/17 03:16:43;;;;;;;16.88;7.72;;;9.80;99.90;;;;;;5084179;28;20495;-73
2023/12/17 03:19:09;;;;;;;12.57;7.20;;;9.90;99.90;;;;;;5065895;28;20028;-73
2023/12/17 03:21:34;;;;;;;13.98;7.40;;;9.90;99.90;;;;;;5074221;28;20020;-73
2023/12/17 03:24:00;;;;;;;13.48;7.43;;;9.90;99.90;;;;;;5067484;28;20556;-73
2023/12/17 03:26:25;;;;;;;13.15;7.28;;;9.80;99.90;;;;;;5089956;28;20032;-73
2023/12/17 03:28:51;;;;;;;14.73;6.95;;;9.80;99.90;;;;;;5070386;28;20464;-73
2023/12/17 03:31:17;;;;;;;12.52;6.18;;;9.90;99.90;;;;;;5075456;28;20395;-73
2023/12/17 03:33:43;;;;;;;14.05;7.07;;;9.80;99.90;;;;;;5072355;28;20025;-73
2023/12/17 03:36:13;;;;;;;14.90;6.85;;;9.80;99.90;;;;;;5078352;28;20572;-73
2023/12/17 03:38:39;;;;;;;14.07;7.40;;;9.80;99.90;;;;;;5072608;28;20115;-73
2023/12/17 03:41:05;;;;;;;15.70;7.50;;;9.80;99.90;;;;;;5075807;28;20116;-73
2023/12/17 03:43:30;;;;;;;12.50;6.47;;;9.80;99.90;;;;;;5072166;28;20024;-73
2023/12/17 03:45:57;;;;;;;11.68;6.85;;;9.90;99.90;;;;;;5074738;28;20125;-73
2023/12/17 03:48:22;;;;;;;14.52;8.20;;;9.80;99.90;;;;;;5082051;28;20444;-73
2023/12/17 03:50:48;;;;;;;12.38;6.50;;;9.80;99.90;;;;;;5064518;28;20029;-73
2023/12/17 03:53:13;;;;;;;14.77;6.40;;;9.80;99.90;;;;;;5072297;28;20034;-73
2023/12/17 03:55:39;;;;;;;15.15;7.05;;;9.80;99.90;;;;;;5075151;28;20507;-73
2023/12/17 03:58:05;;;;;;;13.98;6.70;;;9.80;99.90;;;;;;5058817;28;20104;-73
2023/12/17 04:00:30;;;;;;;11.00;6.40;;;9.70;99.90;;;;;;5064660;28;20074;-73
2023/12/17 04:02:56;;;;;;;13.20;6.38;;;9.70;99.90;;;;;;5071843;28;20025;-73
2023/12/17 04:05:24;;;;;;;13.77;7.53;;;9.80;99.90;;;;;;5070249;28;20428;-73
2023/12/17 04:07:52;;;;;;;14.50;7.50;;;9.70;99.90;;;;;;5080372;28;20103;-73
2023/12/17 04:10:17;;;;;;;16.25;8.88;;;9.80;99.90;;;;;;5060907;28;20515;-73
2023/12/17 04:12:43;;;;;;;19.13;9.40;;;9.70;99.90;;;;;;5069020;28;20024;-73
2023/12/17 04:15:09;;;;;;;20.77;9.48;;;9.70;99.90;;;;;;5081136;28;20085;-73
2023/12/17 04:17:34;;;;;;;20.92;10.45;;;9.70;99.90;;;;;;5066584;28;20021;-73
2023/12/17 04:20:01;;;;;;;18.70;10.23;;;9.70;99.90;;;;;;5068534;28;20036;-73
2023/12/17 04:22:26;;;;;;;19.27;10.05;;;9.70;99.90;;;;;;5073594;28;20028;-73
2023/12/17 04:24:52;;;;;;;24.05;11.27;;;9.80;99.90;;;;;;5069032;28;20033;-73
2023/12/17 04:27:17;;;;;;;24.27;12.18;;;9.70;99.90;;;;;;5075687;28;20078;-73
2023/12/17 04:29:43;;;;;;;21.60;11.63;;;9.70;99.90;;;;;;5075026;28;20100;-73
2023/12/17 04:32:09;;;;;;;22.08;11.05;;;9.70;99.90;;;;;;5077804;28;20044;-73
2023/12/17 04:34:34;;;;;;;23.65;12.52;;;9.70;99.90;;;;;;5065839;28;20029;-73
2023/12/17 04:37:00;;;;;;;20.00;11.82;;;9.70;99.90;;;;;;5064134;28;20077;-73
2023/12/17 04:39:26;;;;;;;25.15;11.77;;;9.70;99.90;;;;;;5069672;28;20200;-73
2023/12/17 04:41:52;;;;;;;19.17;10.23;;;9.70;99.90;;;;;;5071795;28;20485;-73
2023/12/17 04:44:17;;;;;;;23.73;12.10;;;9.70;99.90;;;;;;5063107;28;20060;-73
2023/12/17 04:46:43;;;;;;;27.50;13.38;;;9.70;99.90;;;;;;5073018;28;20047;-73
2023/12/17 04:49:09;;;;;;;26.45;12.13;;;9.70;99.90;;;;;;5077255;28;20024;-73
2023/12/17 04:51:34;;;;;;;23.40;12.52;;;9.70;99.90;;;;;;5061584;28;20413;-73
2023/12/17 04:54:00;;;;;;;26.20;13.55;;;9.70;99.90;;;;;;5075085;28;20477;-73
2023/12/17 04:56:25;;;;;;;27.70;13.85;;;9.80;99.90;;;;;;5076347;28;20122;-73
2023/12/17 04:58:51;;;;;;;30.80;14.32;;;9.80;99.90;;;;;;5083529;28;20071;-73
2023/12/17 05:01:16;;;;;;;31.13;15.15;;;9.70;99.90;;;;;;5074820;28;20051;-73
2023/12/17 05:03:42;;;;;;;30.52;14.55;;;9.70;99.90;;;;;;5062040;28;20100;-73
2023/12/17 05:06:08;;;;;;;28.55;14.63;;;9.70;99.90;;;;;;5079022;28;20051;-73
2023/12/17 05:08:34;;;;;;;29.35;13.90;;;9.70;99.90;;;;;;5078463;28;20398;-73
2023/12/17 05:11:00;;;;;;;28.10;14.07;;;9.70;99.90;;;;;;5067112;28;20111;-73
2023/12/17 05:13:25;;;;;;;30.45;14.82;;;9.80;99.90;;;;;;5083552;28;20055;-73
2023/12/17 05:15:51;;;;;;;30.52;15.30;;;9.70;99.90;;;;;;5070955;28;20020;-73
2023/12/17 05:18:16;;;;;;;30.25;14.82;;;9.70;99.90;;;;;;5072085;28;20043;-73
2023/12/17 05:20:42;;;;;;;33.22;15.80;;;9.80;99.90;;;;;;5073722;28;20070;-73
2023/12/17 05:23:12;;;;;;;33.00;16.50;;;9.70;99.90;;;;;;5081864;28;20037;-73
2023/12/17 05:25:41;;;;;;;34.50;16.80;;;9.70;99.90;;;;;;5070056;28;20048;-73
2023/12/17 05:28:09;;;;;;;34.92;18.25;;;9.70;99.90;;;;;;5070393;28;20372;-73
2023/12/17 05:30:37;;;;;;;38.22;18.52;;;9.70;99.90;;;;;;5069918;28;20037;-73
2023/12/17 05:33:03;;;;;;;40.42;19.27;;;9.70;99.90;;;;;;5059030;28;20068;-73
2023/12/17 05:35:29;;;;;;;40.67;19.55;;;9.70;99.90;;;;;;5076017;28;20480;-73
2023/12/17 05:37:54;;;;;;;38.53;20.08;;;9.70;99.90;;;;;;5074954;28;20017;-73
2023/12/17 05:40:20;;;;;;;38.90;18.45;;;9.70;99.90;;;;;;5077706;28;20026;-73
2023/12/17 05:42:45;;;;;;;39.47;18.75;;;9.70;99.90;;;;;;5077903;28;20104;-73
2023/12/17 05:45:11;;;;;;;40.08;18.33;;;9.70;99.90;;;;;;5069560;28;20043;-73
2023/12/17 05:47:38;;;;;;;38.63;18.80;;;9.70;99.90;;;;;;5080677;28;20040;-73
2023/12/17 05:50:05;;;;;;;35.97;17.92;;;9.70;99.90;;;;;;5072653;28;20523;-73
2023/12/17 05:52:30;;;;;;;38.28;18.38;;;9.70;99.90;;;;;;5079371;28;20552;-73
2023/12/17 05:54:56;;;;;;;39.80;18.00;;;9.70;99.90;;;;;;5071350;28;20028;-73
2023/12/17 05:57:21;;;;;;;36.75;18.85;;;9.70;99.90;;;;;;5072222;28;20020;-73
2023/12/17 05:59:47;;;;;;;38.80;19.17;;;9.70;99.90;;;;;;5069551;28;20102;-73
2023/12/17 06:02:13;;;;;;;39.78;19.73;;;9.70;99.90;;;;;;5068753;28;20047;-73
2023/12/17 06:04:38;;;;;;;42.33;20.38;;;9.70;99.90;;;;;;5077350;28;20036;-73
2023/12/17 06:07:04;;;;;;;46.85;21.70;;;9.70;99.90;;;;;;5086647;28;20033;-73
2023/12/17 06:09:30;;;;;;;47.45;22.13;;;9.70;99.90;;;;;;5069885;28;20064;-73
2023/12/17 06:11:57;;;;;;;40.63;21.10;;;9.70;99.90;;;;;;5075387;28;20044;-74
2023/12/17 06:14:23;;;;;;;40.00;19.77;;;9.60;99.90;;;;;;5069066;28;20026;-73
2023/12/17 06:16:49;;;;;;;40.85;20.88;;;9.60;99.90;;;;;;5063953;28;20059;-73
2023/12/17 06:19:15;;;;;;;40.95;21.02;;;9.60;99.90;;;;;;5064598;28;20059;-73
2023/12/17 06:21:41;;;;;;;40.85;20.23;;;9.60;99.90;;;;;;5067679;28;20021;-73
2023/12/17 06:24:07;;;;;;;36.63;18.65;;;9.60;99.90;;;;;;5065820;28;20038;-73
2023/12/17 06:26:34;;;;;;;36.13;17.38;;;9.60;99.90;;;;;;5065597;28;20476;-73
2023/12/17 06:28:59;;;;;;;35.88;18.33;;;9.60;99.90;;;;;;5055480;28;20384;-73
2023/12/17 06:31:25;;;;;;;36.97;19.63;;;9.60;99.90;;;;;;5060233;28;20115;-73
2023/12/17 06:33:54;;;;;;;35.10;17.65;;;9.60;99.90;;;;;;5066935;28;20075;-73
2023/12/17 06:36:20;;;;;;;41.47;19.02;;;9.60;99.90;;;;;;5064098;28;20028;-73
2023/12/17 06:38:46;;;;;;;36.13;18.45;;;9.60;99.90;;;;;;5058344;28;20072;-73
2023/12/17 06:41:12;;;;;;;37.17;18.40;;;9.60;99.90;;;;;;5064963;28;21274;-73
2023/12/17 06:43:39;;;;;;;39.28;20.42;;;9.60;99.90;;;;;;5080309;28;20045;-73
2023/12/17 06:46:06;;;;;;;35.33;18.80;;;9.60;99.90;;;;;;5065362;28;20036;-73
2023/12/17 06:48:33;;;;;;;44.13;20.83;;;9.60;99.90;;;;;;5069786;28;20075;-73
2023/12/17 06:51:01;;;;;;;46.90;21.50;;;9.60;99.90;;;;;;5069483;28;20550;-73
2023/12/17 06:53:27;;;;;;;47.17;22.52;;;9.60;99.90;;;;;;5076910;28;20028;-73
2023/12/17 06:55:52;;;;;;;47.88;22.42;;;9.60;99.90;;;;;;5054497;28;20438;-73
2023/12/17 06:58:18;;;;;;;50.63;23.92;;;9.60;99.90;;;;;;5070322;28;20024;-73
2023/12/17 07:00:44;;;;;;;46.40;23.98;;;9.60;99.90;;;;;;5074448;28;20032;-73
2023/12/17 07:03:10;;;;;;;56.17;23.60;;;9.60;99.90;;;;;;5077149;28;20021;-73
2023/12/17 07:05:35;;;;;;;52.10;23.55;;;9.60;99.90;;;;;;5068050;28;20047;-73
2023/12/17 07:08:01;;;;;;;52.70;23.48;;;9.60;99.90;;;;;;5091716;28;20017;-73
2023/12/17 07:10:26;;;;;;;54.55;24.70;;;9.60;99.90;;;;;;5067316;28;20024;-73
2023/12/17 07:12:52;;;;;;;50.17;25.00;;;9.60;99.90;;;;;;5072930;28;20095;-73
2023/12/17 07:15:18;;;;;;;54.88;25.17;;;9.50;99.90;;;;;;5091409;28;20024;-73
2023/12/17 07:17:44;;;;;;;54.63;25.08;;;9.50;99.90;;;;;;5075196;28;20073;-73
2023/12/17 07:20:10;;;;;;;53.60;25.42;;;9.50;99.90;;;;;;5063300;28;20454;-73
2023/12/17 07:22:36;;;;;;;53.92;24.40;;;9.50;99.90;;;;;;5070071;28;20021;-73
2023/12/17 07:25:02;;;;;;;51.97;23.60;;;9.40;99.90;;;;;;5058098;28;20037;-73
2023/12/17 07:27:28;;;;;;;49.05;23.52;;;9.40;99.90;;;;;;5056073;28;20036;-73
2023/12/17 07:29:54;;;;;;;48.10;22.23;;;9.40;99.90;;;;;;5061634;28;20249;-73
2023/12/17 07:32:19;;;;;;;47.08;22.05;;;9.40;99.90;;;;;;5066072;28;20025;-73
2023/12/17 07:34:45;;;;;;;46.38;20.92;;;9.40;99.90;;;;;;5072921;28;20070;-73
2023/12/17 07:37:11;;;;;;;43.25;20.17;;;9.40;99.90;;;;;;5061930;28;20100;-73
2023/12/17 07:39:37;;;;;;;43.17;20.08;;;9.40;99.90;;;;;;5067584;28;20062;-73
2023/12/17 07:42:02;;;;;;;39.13;18.33;;;9.30;99.90;;;;;;5057560;28;20098;-73
2023/12/17 07:44:30;;;;;;;41.20;19.92;;;9.30;99.90;;;;;;5061314;28;20063;-73
2023/12/17 07:46:56;;;;;;;49.47;20.42;;;9.30;99.90;;;;;;5067241;28;20029;-73
2023/12/17 07:49:22;;;;;;;42.97;21.48;;;9.30;99.90;;;;;;5060418;28;20029;-73
2023/12/17 07:51:48;;;;;;;45.97;21.73;;;9.20;99.90;;;;;;5062138;28;20028;-73
2023/12/17 07:54:14;;;;;;;37.78;18.75;;;9.20;99.90;;;;;;5063836;28;20262;-73
2023/12/17 07:56:39;;;;;;;41.08;20.60;;;9.20;99.90;;;;;;5059068;28;20036;-73
2023/12/17 07:59:05;;;;;;;39.80;19.20;;;9.20;99.90;;;;;;5060400;28;20071;-73
2023/12/17 08:01:31;;;;;;;35.78;18.50;;;9.20;99.90;;;;;;5058233;28;20094;-73
2023/12/17 08:03:57;;;;;;;38.88;18.45;;;9.20;99.90;;;;;;5055466;28;20086;-73
2023/12/17 08:06:24;;;;;;;40.33;19.42;;;9.20;99.90;;;;;;5054971;28;20048;-73
2023/12/17 08:08:50;;;;;;;37.55;18.00;;;9.20;99.90;;;;;;5057754;28;20427;-73
2023/12/17 08:11:16;;;;;;;41.28;19.50;;;9.20;99.90;;;;;;5050432;28;20060;-73
2023/12/17 08:13:43;;;;;;;37.25;18.85;;;9.20;99.90;;;;;;5051950;28;20142;-73
2023/12/17 08:16:09;;;;;;;39.63;18.77;;;9.20;99.90;;;;;;5054978;28;20028;-73
2023/12/17 08:18:34;;;;;;;34.63;17.13;;;9.30;99.90;;;;;;5059930;28;20492;-73
2023/12/17 08:21:01;;;;;;;35.25;18.23;;;9.30;99.90;;;;;;5076413;28;20468;-73
2023/12/17 08:23:26;;;;;;;32.15;16.48;;;9.30;99.90;;;;;;5069664;28;20108;-73
2023/12/17 08:25:52;;;;;;;32.22;16.67;;;9.20;99.90;;;;;;5072460;28;20115;-73
2023/12/17 08:28:21;;;;;;;35.25;16.20;;;9.20;99.90;;;;;;5073492;28;20484;-73
2023/12/17 08:30:47;;;;;;;31.60;15.73;;;9.20;99.90;;;;;;5060233;28;20072;-73
2023/12/17 08:33:13;;;;;;;31.15;15.48;;;9.20;99.90;;;;;;5095028;28;20486;-73
2023/12/17 08:35:39;;;;;;;32.25;16.30;;;9.10;99.90;;;;;;5085412;28;20476;-73
2023/12/17 08:38:06;;;;;;;25.80;15.07;;;9.20;99.90;;;;;;5071050;28;20062;-73
2023/12/17 08:40:38;;;;;;;33.08;15.07;;;9.20;99.90;;;;;;5066902;28;20485;-73
2023/12/17 08:43:06;;;;;;;28.05;14.95;;;9.20;99.90;;;;;;5073872;28;20321;-74
2023/12/17 08:45:32;;;;;;;30.55;16.08;;;9.30;99.90;;;;;;5070731;28;20052;-73
2023/12/17 08:47:58;;;;;;;31.45;15.30;;;9.20;99.90;;;;;;5069107;28;20379;-74
2023/12/17 08:50:24;;;;;;;34.20;17.40;;;9.20;99.90;;;;;;5072234;28;20104;-74
2023/12/17 08:52:50;;;;;;;29.08;15.63;;;9.20;99.90;;;;;;5072310;28;20016;-74
2023/12/17 08:55:16;;;;;;;30.15;15.27;;;9.20;99.90;;;;;;5069446;28;20499;-73
2023/12/17 08:57:41;;;;;;;34.50;17.10;;;9.30;99.90;;;;;;5072607;28;20102;-73
2023/12/17 09:00:08;;;;;;;33.67;17.30;;;9.30;99.90;;;;;;5075270;28;20057;-75
2023/12/17 09:02:36;;;;;;;34.53;17.70;;;9.20;99.90;;;;;;5062708;28;20479;-73
2023/12/17 09:05:02;;;;;;;33.20;17.63;;;9.20;99.90;;;;;;5058970;28;20067;-73
2023/12/17 09:07:28;;;;;;;30.83;15.40;;;9.20;99.90;;;;;;5069392;28;20020;-74
2023/12/17 09:09:54;;;;;;;28.38;15.85;;;9.20;99.90;;;;;;5064656;28;20103;-72
2023/12/17 09:12:19;;;;;;;23.58;13.60;;;9.10;99.90;;;;;;5068263;28;20028;-73
2023/12/17 09:14:45;;;;;;;26.25;14.23;;;9.20;99.90;;;;;;5067619;28;20115;-73
2023/12/17 09:17:11;;;;;;;28.70;14.95;;;9.20;99.90;;;;;;5071372;28;20020;-72
2023/12/17 09:19:37;;;;;;;25.92;13.18;;;9.10;99.90;;;;;;5083366;28;20040;-72
2023/12/17 09:22:03;;;;;;;26.02;13.75;;;9.10;99.90;;;;;;5066055;28;20044;-72
2023/12/17 09:24:29;;;;;;;23.60;12.07;;;9.20;99.90;;;;;;5071361;28;20036;-72
2023/12/17 09:26:55;;;;;;;22.55;13.80;;;9.20;99.90;;;;;;5063395;28;20041;-72
2023/12/17 09:29:20;;;;;;;24.65;13.23;;;9.20;99.90;;;;;;5074927;28;20059;-72
2023/12/17 09:31:47;;;;;;;25.02;13.35;;;9.20;99.90;;;;;;5082225;28;20024;-72
2023/12/17 09:34:15;;;;;;;26.90;13.82;;;9.20;99.90;;;;;;5076094;28;20025;-72
2023/12/17 09:36:41;;;;;;;26.20;12.95;;;9.20;99.90;;;;;;5064589;28;20024;-72
2023/12/17 09:39:09;;;;;;;20.05;11.23;;;9.20;99.90;;;;;;5073898;28;20399;-72
2023/12/17 09:41:36;;;;;;;20.23;11.07;;;9.20;99.90;;;;;;5072408;28;20104;-72
2023/12/17 09:44:04;;;;;;;23.95;12.15;;;9.20;99.90;;;;;;5078528;28;20447;-72
2023/12/17 09:46:29;;;;;;;20.85;11.57;;;9.30;99.90;;;;;;5067484;28;20519;-72
2023/12/17 09:48:55;;;;;;;20.38;11.35;;;9.30;99.90;;;;;;5062283;28;20020;-72
2023/12/17 09:51:23;;;;;;;21.27;11.63;;;9.20;99.90;;;;;;5071627;28;20039;-72
2023/12/17 09:53:49;;;;;;;20.23;10.75;;;9.20;99.90;;;;;;5072962;28;20074;-72
2023/12/17 09:56:14;;;;;;;19.50;10.27;;;9.10;99.90;;;;;;5068363;28;20033;-72
2023/12/17 09:58:40;;;;;;;18.27;9.52;;;9.10;99.90;;;;;;5070983;28;20095;-72
2023/12/17 10:01:06;;;;;;;19.27;11.52;;;9.10;99.90;;;;;;5064424;28;20033;-72
2023/12/17 10:03:32;;;;;;;17.45;10.07;;;9.00;99.90;;;;;;5065965;28;20484;-72
2023/12/17 10:05:57;;;;;;;16.17;9.90;;;9.00;99.90;;;;;;5069030;28;20033;-72
2023/12/17 10:08:23;;;;;;;20.73;11.23;;;8.90;99.90;;;;;;5065565;28;20064;-72
2023/12/17 10:10:49;;;;;;;14.60;8.75;;;8.90;99.90;;;;;;5068983;28;20660;-72
2023/12/17 10:13:19;;;;;;;16.00;10.30;;;8.90;99.90;;;;;;5064542;28;20139;-72
2023/12/17 10:15:50;;;;;;;17.70;9.65;;;8.80;99.90;;;;;;5068342;28;20404;-72
2023/12/17 10:18:19;;;;;;;17.23;9.55;;;8.80;99.90;;;;;;5072042;28;20029;-72
2023/12/17 10:20:45;;;;;;;16.38;9.48;;;8.80;99.90;;;;;;5066966;28;20028;-72
2023/12/17 10:23:12;;;;;;;17.45;9.65;;;8.80;99.90;;;;;;5069527;28;20035;-72
2023/12/17 10:25:38;;;;;;;18.85;10.93;;;8.80;99.90;;;;;;5066532;28;20036;-72
2023/12/17 10:28:04;;;;;;;24.05;11.18;;;8.90;99.90;;;;;;5055127;28;20099;-72
2023/12/17 10:30:33;;;;;;;19.52;11.95;;;8.70;99.90;;;;;;5070568;28;20032;-72
2023/12/17 10:33:01;;;;;;;17.50;10.25;;;8.80;99.90;;;;;;5065578;28;20091;-72
2023/12/17 10:35:28;;;;;;;22.38;12.40;;;8.80;99.90;;;;;;5068281;28;20103;-72
2023/12/17 10:38:00;;;;;;;22.70;12.32;;;8.80;99.90;;;;;;5084648;28;20063;-72
2023/12/17 10:40:27;;;;;;;23.52;12.75;;;8.80;99.90;;;;;;5063455;28;20095;-72
2023/12/17 10:42:55;;;;;;;22.60;12.60;;;8.80;99.90;;;;;;5055888;28;20025;-72
2023/12/17 10:45:21;;;;;;;23.25;12.55;;;8.70;99.90;;;;;;5058753;28;20114;-72
2023/12/17 10:47:52;;;;;;;22.45;12.07;;;8.70;99.90;;;;;;5070003;28;20028;-72
2023/12/17 10:50:19;;;;;;;23.95;13.00;;;8.70;99.90;;;;;;5065835;28;20473;-72
2023/12/17 10:52:49;;;;;;;24.70;12.80;;;8.70;99.90;;;;;;5059287;28;20060;-72
2023/12/17 10:55:16;;;;;;;27.02;14.20;;;8.70;99.90;;;;;;5051479;28;20106;-72
2023/12/17 10:57:57;;;;;;;30.10;14.95;;;8.70;99.90;;;;;;5067513;28;20020;-72
2023/12/17 11:00:26;;;;;;;27.30;14.85;;;8.70;99.90;;;;;;5067893;28;20075;-72
2023/12/17 11:02:55;;;;;;;25.15;13.30;;;8.60;99.90;;;;;;5070241;28;20099;-72
2023/12/17 11:05:21;;;;;;;31.02;14.98;;;8.60;99.90;;;;;;5064063;28;20085;-72
2023/12/17 11:07:46;;;;;;;30.83;16.50;;;8.70;99.90;;;;;;5065748;28;20032;-72
2023/12/17 11:10:13;;;;;;;30.73;15.30;;;8.70;99.90;;;;;;5055810;28;20029;-72
2023/12/17 11:12:39;;;;;;;29.02;16.25;;;8.70;99.90;;;;;;5057111;28;20029;-73
2023/12/17 11:15:06;;;;;;;30.35;15.73;;;8.70;99.90;;;;;;5053190;28;21706;-72
2023/12/17 11:17:31;;;;;;;30.92;16.20;;;8.80;99.90;;;;;;5057859;28;20021;-72
2023/12/17 11:19:59;;;;;;;33.47;16.98;;;8.80;99.90;;;;;;5058987;28;20033;-72
2023/12/17 11:22:26;;;;;;;35.58;17.45;;;8.80;99.90;;;;;;5060817;28;20103;-72
2023/12/17 11:24:58;;;;;;;37.63;18.25;;;8.90;99.90;;;;;;5057623;28;20037;-72
2023/12/17 11:27:25;;;;;;;33.13;17.52;;;8.90;99.90;;;;;;5054427;28;20052;-72
2023/12/17 11:29:51;;;;;;;33.60;18.35;;;9.00;99.90;;;;;;5068915;28;20036;-72
2023/12/17 11:32:21;;;;;;;34.75;18.23;;;9.00;99.90;;;;;;5084388;28;20021;-72
2023/12/17 11:34:49;;;;;;;32.33;18.02;;;9.10;99.90;;;;;;5067309;28;20039;-72
2023/12/17 11:37:19;;;;;;;36.38;18.27;;;9.10;99.90;;;;;;5066910;28;20055;-72
2023/12/17 11:39:49;;;;;;;32.33;17.98;;;9.10;99.90;;;;;;5070459;28;20024;-72
2023/12/17 11:42:17;;;;;;;31.27;17.42;;;9.10;99.90;;;;;;5068480;28;20056;-72
2023/12/17 11:44:50;;;;;;;33.63;18.88;;;9.10;99.90;;;;;;5063969;28;20044;-72
2023/12/17 11:47:17;;;;;;;35.67;17.80;;;9.10;99.90;;;;;;5058141;28;20048;-72
2023/12/17 11:49:43;;;;;;;30.13;17.63;;;9.10;99.90;;;;;;5064849;28;20025;-72
2023/12/17 11:52:11;;;;;;;39.17;18.40;;;9.00;99.90;;;;;;5067072;28;20028;-72
2023/12/17 11:54:37;;;;;;;34.70;18.05;;;9.00;99.90;;;;;;5054103;28;20032;-72
2023/12/17 11:57:02;;;;;;;33.08;17.10;;;9.00;99.90;;;;;;5052322;28;20040;-71
2023/12/17 11:59:34;;;;;;;33.92;18.55;;;8.90;99.90;;;;;;5058888;28;20032;-72
2023/12/17 12:02:02;;;;;;;31.27;18.02;;;9.00;99.90;;;;;;5057448;28;20051;-73
2023/12/17 12:04:41;;;;;;;39.45;20.13;;;8.90;99.90;;;;;;5067087;28;20111;-72
2023/12/17 12:07:08;;;;;;;35.40;19.60;;;8.90;99.90;;;;;;5065257;28;20068;-73
2023/12/17 12:09:33;;;;;;;34.65;17.92;;;8.90;99.90;;;;;;5060309;28;20016;-72
2023/12/17 12:11:59;;;;;;;35.92;19.02;;;8.90;99.90;;;;;;5070670;28;20723;-72
2023/12/17 12:14:25;;;;;;;37.95;19.10;;;8.90;99.90;;;;;;5057832;28;20321;-72
2023/12/17 12:16:54;;;;;;;34.47;19.30;;;8.90;99.90;;;;;;5049714;28;20025;-72
2023/12/17 12:19:20;;;;;;;35.97;18.40;;;9.00;99.90;;;;;;5059442;28;20029;-73
2023/12/17 12:21:51;;;;;;;30.08;17.67;;;9.00;99.90;;;;;;5052663;28;20162;-73
2023/12/17 12:24:20;;;;;;;38.03;19.50;;;9.00;99.90;;;;;;5040782;28;20051;-73
2023/12/17 12:26:46;;;;;;;40.00;19.42;;;9.10;99.90;;;;;;5060467;28;20037;-72
2023/12/17 12:29:12;;;;;;;33.83;18.08;;;9.10;99.90;;;;;;5050634;28;20035;-72
2023/12/17 12:31:38;;;;;;;40.08;16.65;;;9.20;99.90;;;;;;5054031;28;20036;-74
2023/12/17 12:34:05;;;;;;;28.42;15.30;;;9.20;99.90;;;;;;5051891;28;20029;-73